Accueil
METAR-TAF:

METAR-TAF

Aéroports :

Tripoli, Libye

Aéroport de Milaga

latitude: 32-54N, longitude: 13-17E, altitude: 11 m

Observation

Le bulletin a été fait il y a 50 minutes, à 21:50 UTC
Vent 5 kt de est/sud-est
Température 19°C
Humidité 49%
Pression 1019 hPa
Visibilité: 7000 m

METAR: HLLM 242150Z 11005KT 7000 NSC 19/08 Q1019

Heure: 00:40 (22:40 UTC)

Prévision

Le bulletin a été fait il y a 5 heures et 40 minutes, à 17:00 UTC
Prévision valable du 24 à 18 UTC au 25 à 18 UTC
Vent 15 kt de est
Visibilité: 8000 m
Evoluant progressivement
du 25 à 00 UTC au 25 à 02 UTC
Vent 10 kt de est/sud-est
Evoluant progressivement
du 25 à 15 UTC au 25 à 17 UTC
Vent 12 kt de est

TAF: HLLM 241700Z 2418/2518 09015KT 8000 NSC BECMG 2500/2502 12010KT BECMG 2515/2517 09012KT

Observations et prévisions météorologiques de plus de 4000 aéroports (messages METAR et TAF).

Les stations disponibles sont représentées par des disques jaunes et rouges sur la carte.

Passer la souris dessus pour voir le nom de la station.

Cliquer dessus pour voir les observations et prévisions météorologiques.

Pour changer de carte: cliquez sur les boutons verts avec une croix noire pour zoomer, sur le bouton vert avec un tiret pour effectuer un zoom arrière, ou sur les flèches vertes pour les cartes adjacentes.


METAR-TAF: